Time;durP1;ratioP1;P1;durP2;ratioP2;P2;SDS_P1;SDS_P2;PMS_P1;PMS_P2;Temp;Humidity;BMP_temperature;BMP_pressure;BME280_temperature;BME280_humidity;BME280_pressure;Samples;Min_cycle;Max_cycle;Signal;HPM_P1;HPM_P2
2021/06/15 00:02:00;;;;;;;7.80;7.10;;;;;;;18.75;100.00;99935.64;1680491;83;21072;-67
2021/06/15 00:04:26;;;;;;;7.03;5.77;;;;;;;18.82;100.00;99937.58;1683418;83;22386;-69
2021/06/15 00:06:54;;;;;;;9.07;5.17;;;;;;;18.68;100.00;99939.23;1681939;85;20982;-69
2021/06/15 00:09:20;;;;;;;7.30;6.00;;;;;;;18.73;100.00;99937.73;1680021;83;21087;-68
2021/06/15 00:11:48;;;;;;;8.43;6.87;;;;;;;18.67;100.00;99940.26;1636913;86;21564;-68
2021/06/15 00:14:15;;;;;;;6.20;5.60;;;;;;;18.90;100.00;99943.75;1695200;83;20920;-68
2021/06/15 00:16:42;;;;;;;9.27;5.57;;;;;;;18.79;100.00;99942.02;1693237;83;21448;-69
2021/06/15 00:19:08;;;;;;;8.00;6.83;;;;;;;18.82;100.00;99945.50;1694671;83;21493;-68
2021/06/15 00:21:35;;;;;;;9.40;7.50;;;;;;;18.77;100.00;99948.09;1694479;83;21070;-69
2021/06/15 00:24:02;;;;;;;7.83;6.33;;;;;;;18.82;100.00;99945.50;1695627;83;20997;-61
2021/06/15 00:26:28;;;;;;;7.60;5.20;;;;;;;18.85;100.00;99946.34;1695387;83;20949;-69
2021/06/15 00:28:55;;;;;;;8.13;6.17;;;;;;;18.87;100.00;99940.30;1696617;83;21170;-70
2021/06/15 00:31:24;;;;;;;7.50;6.80;;;;;;;18.87;100.00;99939.78;1696980;83;21003;-66
2021/06/15 00:33:51;;;;;;;7.67;6.80;;;;;;;18.88;100.00;99940.05;1694972;83;21038;-69
2021/06/15 00:36:18;;;;;;;6.83;5.93;;;;;;;18.97;100.00;99937.77;1694552;83;20877;-61
2021/06/15 00:38:45;;;;;;;8.03;4.90;;;;;;;19.07;100.00;99935.25;1695638;83;21038;-68
2021/06/15 00:41:11;;;;;;;7.50;5.73;;;;;;;19.15;100.00;99936.14;1695327;83;21177;-68
2021/06/15 00:43:39;;;;;;;7.53;6.23;;;;;;;19.10;100.00;99940.05;1695583;83;21130;-68
2021/06/15 00:46:06;;;;;;;6.97;6.27;;;;;;;19.08;100.00;99939.48;1695336;83;21036;-61
2021/06/15 00:48:36;;;;;;;6.43;5.53;;;;;;;19.12;100.00;99945.87;1666999;84;21020;-67
2021/06/15 00:51:05;;;;;;;8.23;5.15;;;;;;;19.14;100.00;99937.19;1695500;83;20913;-68
2021/06/15 00:53:34;;;;;;;8.13;6.30;;;;;;;19.10;100.00;99936.09;1694986;83;21110;-68
2021/06/15 00:56:03;;;;;;;8.10;6.63;;;;;;;19.10;100.00;99928.16;1695662;83;20972;-61
2021/06/15 00:58:30;;;;;;;7.37;6.57;;;;;;;18.83;100.00;99932.06;1694632;83;20984;-66
2021/06/15 01:00:57;;;;;;;7.77;5.50;;;;;;;18.75;100.00;99943.03;1695398;83;21048;-68
2021/06/15 01:03:24;;;;;;;7.00;5.60;;;;;;;18.61;100.00;99945.21;1695906;83;21001;-69
2021/06/15 01:05:51;;;;;;;6.70;6.10;;;;;;;18.58;100.00;99949.66;1695253;83;21082;-69
2021/06/15 01:08:32;;;;;;;8.10;7.30;;;;;;;18.53;100.00;99952.23;1695319;83;20917;-61
2021/06/15 01:11:22;;;;;;;;;;;;;;;18.64;100.00;99951.33;1669553;84;20995;-68
2021/06/15 01:14:21;;;;;;;5.28;4.78;;;;;;;18.71;100.00;99955.13;1692910;83;20178;-64
2021/06/15 01:16:58;;;;;;;6.17;5.07;;;;;;;18.66;100.00;99949.75;1695057;83;20928;-67
2021/06/15 01:20:05;;;;;;;6.90;6.30;;;;;;;18.92;100.00;99945.64;1695389;83;22266;-67
2021/06/15 01:22:47;;;;;;;8.23;7.40;;;;;;;18.91;100.00;99937.45;1695917;83;20921;-61
2021/06/15 01:25:45;;;;;;;8.68;6.72;;;;;;;19.00;100.00;99933.31;1695733;84;22006;-67
2021/06/15 01:28:14;;;;;;;9.43;6.40;;;;;;;18.43;100.00;99946.80;1693871;83;20889;-61
2021/06/15 01:31:06;;;;;;;8.20;6.53;;;;;;;18.15;100.00;99956.42;1695231;83;20995;-67
2021/06/15 01:33:36;;;;;;;9.57;8.10;;;;;;;18.34;100.00;99949.58;1695356;83;21211;-70
2021/06/15 01:36:04;;;;;;;10.13;6.90;;;;;;;18.32;100.00;99952.97;1694049;83;21494;-69
2021/06/15 01:38:37;;;;;;;6.70;5.50;;;;;;;18.34;100.00;99947.73;1666654;84;22111;-68
2021/06/15 01:41:12;;;;;;;8.77;7.93;;;;;;;18.35;100.00;99947.21;1696324;83;21534;-73
2021/06/15 01:43:45;;;;;;;10.33;7.93;;;;;;;18.44;100.00;99937.83;1695531;83;20964;-63
2021/06/15 01:46:13;;;;;;;9.93;7.97;;;;;;;18.30;100.00;99932.63;1695891;83;21154;-73
2021/06/15 01:48:52;;;;;;;8.63;6.63;;;;;;;18.35;100.00;99924.26;1695270;83;21007;-73
2021/06/15 01:51:21;;;;;;;8.83;6.70;;;;;;;18.48;100.00;99919.94;1693851;83;20976;-73
2021/06/15 01:53:57;;;;;;;7.53;6.60;;;;;;;18.62;100.00;99920.40;1693266;83;21429;-72
2021/06/15 01:56:28;;;;;;;9.47;8.00;;;;;;;18.60;100.00;99931.74;1694125;83;20873;-72
2021/06/15 01:58:57;;;;;;;7.10;5.87;;;;;;;18.79;100.00;99923.53;1694771;83;21141;-73
2021/06/15 02:01:26;;;;;;;8.17;5.33;;;;;;;19.38;100.00;99923.69;1693983;84;21466;-72
2021/06/15 02:03:55;;;;;;;6.95;6.25;;;;;;;19.45;100.00;99921.65;1690606;83;21197;-73
2021/06/15 02:06:24;;;;;;;6.77;6.07;;;;;;;19.71;100.00;99920.61;1682049;83;20996;-73
2021/06/15 02:08:53;;;;;;;6.03;5.00;;;;;;;20.09;100.00;99915.61;1706766;82;21510;-73
2021/06/15 02:11:30;;;;;;;8.47;5.83;;;;;;;20.71;100.00;99911.50;1658057;85;21249;-63
2021/06/15 02:14:02;;;;;;;8.27;6.03;;;;;;;21.18;100.00;99899.48;1703411;83;22166;-74
2021/06/15 02:16:33;;;;;;;7.13;6.10;;;;;;;21.59;100.00;99902.20;1683113;83;20957;-74
2021/06/15 02:19:19;;;;;;;11.55;6.20;;;;;;;22.04;100.00;99899.28;1683625;83;28460;-63
2021/06/15 02:21:54;;;;;;;6.67;5.20;;;;;;;22.50;100.00;99896.05;1685951;83;21071;-72
2021/06/15 02:24:25;;;;;;;7.60;6.07;;;;;;;23.09;100.00;99903.78;1680845;83;21255;-70
2021/06/15 02:26:52;;;;;;;7.05;5.50;;;;;;;23.70;100.00;99895.41;1681024;83;20968;-62
2021/06/15 02:29:20;;;;;;;7.70;5.80;;;;;;;23.72;100.00;99891.16;1657540;85;32594;-71
2021/06/15 02:31:54;;;;;;;9.50;6.43;;;;;;;24.26;100.00;99875.47;1680964;83;21061;-70
2021/06/15 02:34:21;;;;;;;6.43;5.80;;;;;;;24.68;100.00;99874.73;1680286;83;21017;-66
2021/06/15 02:36:50;;;;;;;7.73;5.83;;;;;;;25.25;100.00;99865.45;1679457;83;22648;-69
2021/06/15 02:39:22;;;;;;;6.13;5.53;;;;;;;25.61;100.00;99853.68;1682390;83;21037;-65
2021/06/15 02:41:49;;;;;;;6.63;5.23;;;;;;;25.98;100.00;99850.64;1681296;83;22346;-70
2021/06/15 02:44:20;;;;;;;6.23;4.73;;;;;;;26.39;100.00;99848.53;1682327;83;20998;-64
2021/06/15 02:46:46;;;;;;;6.00;4.63;;;;;;;26.90;100.00;99852.30;1681032;83;21066;-63
2021/06/15 02:49:22;;;;;;;5.00;4.50;;;;;;;27.57;100.00;99845.40;1680726;83;21145;-71
2021/06/15 02:52:08;;;;;;;5.90;4.50;;;;;;;27.54;100.00;99845.48;1681170;83;21408;-70
2021/06/15 02:54:45;;;;;;;5.35;4.42;;;;;;;28.07;100.00;99844.67;1705745;83;21473;-69
2021/06/15 02:57:13;;;;;;;6.35;4.42;;;;;;;28.24;100.00;99851.97;1682561;83;21021;-70
2021/06/15 02:59:42;;;;;;;5.20;3.98;;;;;;;28.16;100.00;99848.71;1683285;83;21494;-71
2021/06/15 03:02:09;;;;;;;5.80;4.17;;;;;;;28.34;100.00;99847.67;1692342;79;21117;-71
2021/06/15 03:04:45;;;;;;;4.92;4.17;;;;;;;28.48;100.00;99842.75;1688688;84;21030;-70
2021/06/15 03:07:11;;;;;;;4.55;4.12;;;;;;;28.69;100.00;99836.25;1691354;83;21433;-70
2021/06/15 03:09:39;;;;;;;4.67;4.17;;;;;;;28.90;100.00;99838.53;1689522;84;21038;-70
2021/06/15 03:12:19;;;;;;;6.70;4.45;;;;;;;29.61;100.00;99832.82;1692897;84;21129;-70
2021/06/15 03:14:58;;;;;;;7.65;4.20;;;;;;;29.80;100.00;99831.09;1691305;83;23147;-71
2021/06/15 03:17:27;;;;;;;5.62;5.03;;;;;;;29.90;100.00;99842.84;1689914;84;21030;-72
2021/06/15 03:20:01;;;;;;;6.08;5.03;;;;;;;30.00;100.00;99837.65;1689873;84;20967;-66
2021/06/15 03:22:34;;;;;;;6.10;4.78;;;;;;;29.94;100.00;99841.09;1691564;83;22462;-70
2021/06/15 03:25:04;;;;;;;5.67;4.33;;;;;;;29.96;100.00;99837.50;1691147;84;21027;-70
2021/06/15 03:27:42;;;;;;;4.53;3.77;;;;;;;29.99;100.00;99838.20;1690783;84;21127;-68
2021/06/15 03:30:12;;;;;;;5.67;3.65;;;;;;;30.21;100.00;99842.56;1655409;84;21114;-72
2021/06/15 03:33:02;;;;;;;4.50;4.03;;;;;;;30.18;100.00;99837.83;1667361;84;21540;-69
2021/06/15 03:35:31;;;;;;;5.05;3.83;;;;;;;30.25;100.00;99835.98;1693882;84;21124;-69
2021/06/15 03:38:02;;;;;;;5.08;4.40;;;;;;;30.32;100.00;99830.11;1695195;84;21554;-71
2021/06/15 03:40:32;;;;;;;6.12;4.55;;;;;;;30.30;100.00;99837.92;1696125;83;27005;-69
2021/06/15 03:42:59;;;;;;;4.30;3.87;;;;;;;30.46;100.00;99838.73;1692744;83;20884;-70
2021/06/15 03:45:28;;;;;;;4.85;4.30;;;;;;;30.50;100.00;99839.09;1694495;83;21432;-70
2021/06/15 03:47:56;;;;;;;5.15;3.72;;;;;;;30.57;100.00;99833.73;1694925;84;21180;-69
2021/06/15 03:50:23;;;;;;;4.50;3.98;;;;;;;30.77;100.00;99837.03;1695185;84;21034;-66
2021/06/15 03:52:55;;;;;;;4.03;3.60;;;;;;;31.05;100.00;99841.30;1695058;84;21199;-71
2021/06/15 03:55:23;;;;;;;5.33;3.95;;;;;;;31.58;100.00;99838.91;1694949;84;21143;-62
2021/06/15 03:57:50;;;;;;;4.62;3.52;;;;;;;32.00;100.00;99844.94;1693244;84;20976;-69
2021/06/15 04:00:19;;;;;;;4.83;2.83;;;;;;;32.34;100.00;99840.99;1694964;84;21074;-71
2021/06/15 04:02:48;;;;;;;3.67;3.10;;;;;;;32.31;100.00;99843.58;1703666;83;21505;-63
2021/06/15 04:05:15;;;;;;;5.45;3.77;;;;;;;32.16;100.00;99845.86;1704476;82;21135;-72
2021/06/15 04:07:43;;;;;;;5.20;3.92;;;;;;;32.13;100.00;99845.18;1704784;82;21523;-69
2021/06/15 04:10:11;;;;;;;4.72;3.60;;;;;;;31.91;100.00;99847.75;1704696;82;21034;-69
2021/06/15 04:12:37;;;;;;;3.77;3.33;;;;;;;32.00;100.00;99850.33;1704452;82;21501;-70
2021/06/15 04:15:08;;;;;;;3.90;3.50;;;;;;;32.23;100.00;99848.75;1703916;82;21526;-63
2021/06/15 04:17:44;;;;;;;4.22;3.35;;;;;;;32.48;100.00;99852.81;1686861;83;21307;-70
2021/06/15 04:20:13;;;;;;;3.42;3.10;;;;;;;32.74;100.00;99854.34;1704470;82;21080;-70
2021/06/15 04:22:45;;;;;;;6.30;3.75;;;;;;;32.86;100.00;99869.15;1704150;82;21538;-71
2021/06/15 04:25:15;;;;;;;3.62;2.90;;;;;;;32.76;100.00;99860.17;1704514;82;20970;-69
2021/06/15 04:27:41;;;;;;;5.40;4.17;;;;;;;32.81;100.00;99868.05;1685999;82;21081;-66
2021/06/15 04:30:10;;;;;;;6.03;4.03;;;;;;;32.72;100.00;99869.52;1704524;83;21070;-66
2021/06/15 04:32:57;;;;;;;7.10;4.72;;;;;;;32.76;100.00;99864.22;1704606;84;21042;-71
2021/06/15 04:35:38;;;;;;;10.15;6.53;;;;;;;33.26;100.00;99866.98;1705999;82;21495;-60
2021/06/15 04:38:09;;;;;;;;;;;;;;;33.58;100.00;99869.23;1694316;82;21614;-72
2021/06/15 04:40:42;;;;;;;21.57;13.05;;;;;;;33.74;100.00;99867.88;1705268;82;20127;-69
2021/06/15 04:43:33;;;;;;;10.23;7.72;;;;;;;33.91;100.00;99867.55;1704619;84;21792;-65
2021/06/15 04:46:28;;;;;;;6.65;5.72;;;;;;;34.11;100.00;99870.56;1704974;82;21017;-62
2021/06/15 04:49:11;;;;;;;6.85;4.25;;;;;;;34.31;100.00;99867.34;1705359;82;20955;-71
2021/06/15 04:51:38;;;;;;;6.60;5.25;;;;;;;34.47;100.00;99865.95;1703011;83;20994;-69
2021/06/15 04:54:06;;;;;;;5.22;3.30;;;;;;;34.52;100.00;99866.30;1702134;84;20978;-70
2021/06/15 04:56:32;;;;;;;6.80;4.45;;;;;;;34.82;100.00;99859.20;1704861;82;21539;-61
2021/06/15 04:59:01;;;;;;;6.95;3.62;;;;;;;35.10;99.19;99865.77;1704206;84;21626;-70
2021/06/15 05:01:28;;;;;;;3.85;3.10;;;;;;;35.13;97.65;99863.50;1702304;83;21481;-67
2021/06/15 05:03:55;;;;;;;5.10;3.33;;;;;;;34.94;99.20;99856.13;1694096;84;21063;-70
2021/06/15 05:06:21;;;;;;;4.72;3.70;;;;;;;34.97;98.89;99861.63;1694726;84;21022;-69
2021/06/15 05:08:58;;;;;;;4.25;3.22;;;;;;;34.97;99.90;99860.27;1694964;84;22824;-60
2021/06/15 05:11:27;;;;;;;4.78;3.10;;;;;;;34.69;100.00;99859.10;1693574;84;20955;-69
2021/06/15 05:13:54;;;;;;;4.75;3.12;;;;;;;34.85;100.00;99858.49;1692684;84;21556;-68
2021/06/15 05:16:22;;;;;;;6.60;3.67;;;;;;;35.14;98.64;99859.64;1695298;84;21026;-72
2021/06/15 05:18:49;;;;;;;4.10;3.10;;;;;;;35.35;96.58;99854.63;1667844;84;20975;-61
2021/06/15 05:21:22;;;;;;;4.25;2.98;;;;;;;35.33;98.26;99847.41;1695271;84;22117;-68
2021/06/15 05:24:00;;;;;;;4.75;2.85;;;;;;;35.54;96.37;99845.69;1693572;84;21564;-68
2021/06/15 05:26:27;;;;;;;3.83;2.87;;;;;;;35.74;92.34;99842.33;1691859;84;21540;-71
2021/06/15 05:28:53;;;;;;;3.27;2.83;;;;;;;35.80;94.64;99841.67;1692394;84;21076;-72
2021/06/15 05:31:20;;;;;;;3.55;2.70;;;;;;;35.70;94.25;99842.84;1694531;84;21081;-70
2021/06/15 05:33:46;;;;;;;3.83;2.70;;;;;;;35.74;93.75;99839.63;1693815;84;22638;-71
2021/06/15 05:36:13;;;;;;;3.33;2.90;;;;;;;35.54;94.75;99840.27;1694487;84;21460;-68
2021/06/15 05:38:41;;;;;;;6.92;3.45;;;;;;;35.65;94.83;99845.84;1694617;84;21528;-69
2021/06/15 05:41:07;;;;;;;5.20;3.25;;;;;;;35.81;93.18;99845.94;1685627;84;21082;-74
2021/06/15 05:43:34;;;;;;;7.20;3.40;;;;;;;35.66;95.62;99848.21;1694650;84;21077;-71
2021/06/15 05:46:01;;;;;;;4.08;3.10;;;;;;;35.59;95.51;99838.60;1693831;84;21147;-73
2021/06/15 05:48:27;;;;;;;3.92;2.50;;;;;;;35.42;100.00;99841.20;1694653;84;21526;-71
2021/06/15 05:50:54;;;;;;;4.85;2.45;;;;;;;35.71;94.86;99843.05;1693109;84;21021;-67
2021/06/15 05:53:21;;;;;;;3.40;2.67;;;;;;;36.08;92.60;99843.28;1694337;84;21504;-72
2021/06/15 05:55:49;;;;;;;5.00;2.85;;;;;;;36.25;87.15;99835.17;1694826;84;21035;-62
2021/06/15 05:58:16;;;;;;;3.25;2.62;;;;;;;36.33;89.56;99834.12;1694245;84;21551;-70
2021/06/15 06:00:43;;;;;;;3.67;2.83;;;;;;;36.49;91.96;99836.13;1694890;84;21079;-70
2021/06/15 06:03:10;;;;;;;5.03;3.33;;;;;;;36.79;90.30;99843.48;1682362;83;21067;-71
2021/06/15 06:08:24;;;;;;;5.00;2.70;;;;;;;36.95;91.11;99837.28;1680702;85;21553;-72
2021/06/15 06:10:52;;;;;;;4.45;3.02;;;;;;;36.94;89.62;99841.16;1678820;85;22238;-62
2021/06/15 06:13:19;;;;;;;4.15;2.80;;;;;;;37.07;89.12;99844.97;1680688;85;22538;-70
2021/06/15 06:15:46;;;;;;;5.42;2.33;;;;;;;37.26;90.20;99850.22;1679737;85;21052;-67
2021/06/15 06:18:13;;;;;;;3.98;2.55;;;;;;;37.43;86.80;99845.57;1680731;85;21409;-71
2021/06/15 06:20:39;;;;;;;3.30;2.70;;;;;;;37.39;85.82;99842.56;1677450;83;21571;-73
2021/06/15 06:23:07;;;;;;;3.52;2.77;;;;;;;37.45;86.97;99841.88;1679477;85;21138;-69
2021/06/15 06:25:36;;;;;;;2.87;2.35;;;;;;;37.35;83.24;99852.62;1680171;85;21396;-71
2021/06/15 06:28:03;;;;;;;6.58;3.20;;;;;;;37.15;92.83;99838.45;1679392;85;21055;-71
2021/06/15 06:30:31;;;;;;;3.77;2.62;;;;;;;37.41;93.00;99841.07;1679783;85;21082;-67
2021/06/15 06:32:58;;;;;;;3.22;2.62;;;;;;;37.76;87.62;99837.66;1679663;85;21100;-62
2021/06/15 06:35:25;;;;;;;3.72;2.47;;;;;;;37.64;85.64;99838.16;1678685;85;21501;-71
2021/06/15 06:37:52;;;;;;;4.45;2.70;;;;;;;37.32;89.67;99836.50;1678473;85;21134;-61
2021/06/15 06:40:19;;;;;;;3.52;2.80;;;;;;;37.25;87.56;99839.15;1679997;85;21404;-71
2021/06/15 06:42:45;;;;;;;3.85;2.60;;;;;;;37.02;85.32;99842.02;1679386;84;21093;-71
2021/06/15 06:45:13;;;;;;;3.85;2.45;;;;;;;36.96;87.48;99832.63;1617420;87;21620;-65
2021/06/15 06:47:41;;;;;;;3.92;2.35;;;;;;;37.45;87.99;99826.93;1625197;88;21107;-61
2021/06/15 06:50:07;;;;;;;3.62;2.67;;;;;;;37.62;83.66;99820.65;1626004;88;21094;-69
2021/06/15 06:52:35;;;;;;;3.67;2.50;;;;;;;37.52;82.41;99818.06;1628149;88;20973;-68
2021/06/15 06:55:02;;;;;;;5.55;2.77;;;;;;;37.62;85.85;99819.28;1616347;87;21076;-71
2021/06/15 06:57:28;;;;;;;4.22;2.70;;;;;;;37.56;87.04;99819.45;1626665;87;21113;-67
2021/06/15 06:59:55;;;;;;;4.53;2.92;;;;;;;37.77;82.00;99823.67;1626839;88;21115;-66
2021/06/15 07:02:21;;;;;;;3.35;2.62;;;;;;;37.93;83.08;99828.31;1632702;86;21074;-69
2021/06/15 07:04:48;;;;;;;5.45;2.67;;;;;;;37.97;81.81;99829.11;1645073;87;22472;-70
2021/06/15 07:07:15;;;;;;;2.65;2.08;;;;;;;37.71;76.51;99840.16;1644567;85;20989;-63
2021/06/15 07:09:41;;;;;;;3.17;2.30;;;;;;;37.27;71.53;99828.67;1646223;86;21635;-69
2021/06/15 07:12:10;;;;;;;3.65;3.17;;;;;;;36.79;75.42;99836.69;1647757;85;21604;-61
2021/06/15 07:14:37;;;;;;;2.75;2.30;;;;;;;36.22;82.65;99836.70;1647642;86;21585;-68
2021/06/15 07:17:04;;;;;;;2.42;2.22;;;;;;;35.99;83.46;99844.09;1649056;85;20916;-69
2021/06/15 07:19:31;;;;;;;8.58;3.75;;;;;;;35.71;87.66;99841.70;1648636;85;20960;-60
2021/06/15 07:21:58;;;;;;;4.42;2.62;;;;;;;35.58;90.44;99839.17;1646925;86;21004;-67
2021/06/15 07:24:25;;;;;;;5.65;2.67;;;;;;;35.49;92.70;99833.74;1649015;85;21149;-68
2021/06/15 07:26:52;;;;;;;10.98;3.55;;;;;;;35.44;92.18;99836.77;1649186;85;20992;-67
2021/06/15 07:29:19;;;;;;;9.23;3.45;;;;;;;35.20;86.18;99832.48;1649410;85;21000;-67
2021/06/15 07:31:46;;;;;;;15.48;4.92;;;;;;;34.91;89.65;99837.31;1647710;85;21008;-68
2021/06/15 07:34:13;;;;;;;13.83;3.60;;;;;;;34.65;92.33;99834.45;1648246;86;21122;-68
2021/06/15 07:36:40;;;;;;;10.58;3.83;;;;;;;34.71;95.22;99828.98;1647315;86;21237;-64
2021/06/15 07:39:06;;;;;;;9.93;3.55;;;;;;;34.99;93.82;99832.81;1648490;85;22195;-68
2021/06/15 07:41:33;;;;;;;5.72;2.42;;;;;;;35.20;93.08;99825.13;1648734;85;21020;-69
2021/06/15 07:44:00;;;;;;;5.55;2.47;;;;;;;35.49;88.95;99830.48;1639804;85;21091;-63
2021/06/15 07:46:26;;;;;;;6.30;2.55;;;;;;;35.48;83.73;99824.83;1653805;85;22222;-67
2021/06/15 07:48:54;;;;;;;4.30;2.42;;;;;;;35.47;85.33;99821.14;1640862;86;22261;-70
2021/06/15 07:51:20;;;;;;;4.35;2.15;;;;;;;35.52;84.18;99805.38;1668496;84;21047;-70
2021/06/15 07:53:47;;;;;;;4.58;2.30;;;;;;;36.05;85.17;99806.80;1704761;82;20963;-61
2021/06/15 07:56:14;;;;;;;4.92;2.55;;;;;;;36.49;83.91;99809.55;1704319;82;20983;-62
2021/06/15 07:58:42;;;;;;;5.28;2.42;;;;;;;36.37;81.41;99794.81;1703971;82;21041;-69
2021/06/15 08:01:09;;;;;;;3.90;2.30;;;;;;;36.59;80.94;99791.23;1706049;82;21156;-70
2021/06/15 08:03:37;;;;;;;4.10;2.50;;;;;;;36.68;84.43;99793.69;1713569;82;21467;-72
2021/06/15 08:06:04;;;;;;;2.87;2.00;;;;;;;36.56;83.21;99802.05;1716950;82;21048;-72
2021/06/15 08:08:31;;;;;;;4.30;2.25;;;;;;;36.17;84.25;99802.30;1718880;82;21115;-60
2021/06/15 08:10:59;;;;;;;3.85;1.98;;;;;;;36.04;87.98;99801.17;1719039;82;21080;-70
2021/06/15 08:13:26;;;;;;;3.80;2.45;;;;;;;35.70;89.96;99802.18;1717632;83;21158;-70
2021/06/15 08:15:55;;;;;;;3.12;2.17;;;;;;;35.26;90.73;99798.50;1718576;82;20910;-64
2021/06/15 08:18:24;;;;;;;4.25;2.80;;;;;;;34.88;87.89;99793.33;1719018;82;21040;-70
2021/06/15 08:20:52;;;;;;;5.03;2.70;;;;;;;34.29;98.38;99785.75;1711120;83;21056;-70
2021/06/15 08:23:18;;;;;;;6.22;2.90;;;;;;;34.31;100.00;99782.69;1719329;82;21075;-71
2021/06/15 08:25:46;;;;;;;3.90;2.27;;;;;;;34.97;98.33;99785.00;1716778;82;21212;-70
2021/06/15 08:28:13;;;;;;;5.03;2.52;;;;;;;35.69;96.14;99790.55;1717092;83;21276;-74
2021/06/15 08:30:40;;;;;;;6.22;2.80;;;;;;;36.30;85.33;99799.59;1720390;82;21557;-71
2021/06/15 08:33:07;;;;;;;5.05;2.70;;;;;;;36.41;92.40;99805.16;1713835;82;21006;-72
2021/06/15 08:35:34;;;;;;;9.93;3.30;;;;;;;36.31;88.77;99807.94;1716199;82;21125;-72
2021/06/15 08:38:01;;;;;;;5.75;2.27;;;;;;;36.15;88.36;99805.39;1715779;82;21159;-68
2021/06/15 08:40:28;;;;;;;3.70;2.30;;;;;;;35.74;92.99;99798.37;1716087;83;22464;-69
2021/06/15 08:42:54;;;;;;;3.55;2.10;;;;;;;35.59;94.01;99800.65;1717288;82;21010;-64
2021/06/15 08:45:21;;;;;;;3.58;1.82;;;;;;;35.44;89.31;99802.88;1718665;82;21051;-71
2021/06/15 08:47:49;;;;;;;11.95;2.83;;;;;;;34.92;92.08;99795.53;1717880;83;21060;-71
2021/06/15 08:50:19;;;;;;;4.35;2.52;;;;;;;34.34;100.00;99792.80;1718150;82;21155;-73
2021/06/15 08:52:46;;;;;;;4.95;2.20;;;;;;;33.83;100.00;99792.78;1716496;83;21108;-64
2021/06/15 08:55:14;;;;;;;3.58;1.82;;;;;;;33.49;100.00;99789.68;1715707;82;20993;-72
2021/06/15 08:57:41;;;;;;;8.05;2.20;;;;;;;33.06;100.00;99789.88;1718292;82;21041;-72
2021/06/15 09:00:11;;;;;;;3.10;2.12;;;;;;;32.51;100.00;99788.73;1717759;83;21405;-62
2021/06/15 09:02:46;;;;;;;2.83;1.90;;;;;;;32.28;100.00;99791.66;1717370;82;21136;-72
2021/06/15 09:05:18;;;;;;;1.47;1.22;;;;;;;32.18;100.00;99782.91;1701165;84;21088;-69
2021/06/15 09:08:06;;;;;;;2.27;1.60;;;;;;;32.26;100.00;99798.75;1702612;82;21042;-70
2021/06/15 09:10:40;;;;;;;3.12;1.50;;;;;;;32.21;100.00;99793.59;1704460;82;21041;-70
2021/06/15 09:13:28;;;;;;;2.45;1.60;;;;;;;32.31;100.00;99789.63;1702323;83;21092;-73
2021/06/15 09:15:56;;;;;;;2.10;1.50;;;;;;;32.69;100.00;99781.94;1704120;82;21119;-71
2021/06/15 09:18:31;;;;;;;2.65;1.67;;;;;;;33.07;100.00;99779.33;1702955;84;21033;-70
2021/06/15 09:21:05;;;;;;;3.20;1.52;;;;;;;33.52;100.00;99779.50;1700564;84;20959;-72
2021/06/15 09:23:33;;;;;;;3.35;2.05;;;;;;;34.09;100.00;99780.86;1701440;82;21445;-63
2021/06/15 09:26:00;;;;;;;8.20;2.50;;;;;;;34.59;100.00;99778.48;1702340;84;21024;-72
2021/06/15 09:28:27;;;;;;;2.67;1.87;;;;;;;35.16;100.00;99765.22;1702301;84;21114;-72
2021/06/15 09:30:57;;;;;;;2.77;1.87;;;;;;;35.94;95.37;99773.28;1698552;82;21566;-72
2021/06/15 09:33:48;;;;;;;3.70;1.98;;;;;;;36.18;94.52;99761.80;1700636;84;21531;-72
2021/06/15 09:36:27;;;;;;;5.60;2.25;;;;;;;36.56;86.78;99762.69;1695686;83;21101;-75
2021/06/15 09:38:57;;;;;;;6.17;2.50;;;;;;;37.16;82.43;99755.19;1697744;82;21582;-75
2021/06/15 09:41:43;;;;;;;4.50;2.37;;;;;;;37.30;74.86;99751.81;1701990;82;21134;-74
2021/06/15 09:44:21;;;;;;;4.15;2.55;;;;;;;37.30;72.72;99755.12;1700231;82;21543;-74
2021/06/15 09:46:53;;;;;;;4.85;2.70;;;;;;;37.52;72.30;99759.59;1700647;82;21171;-72
2021/06/15 09:49:43;;;;;;;4.60;2.35;;;;;;;37.50;68.70;99753.16;1701618;84;20951;-67
2021/06/15 09:52:26;;;;;;;5.28;2.45;;;;;;;37.67;69.28;99742.80;1699594;84;20974;-73
2021/06/15 09:54:59;;;;;;;5.28;2.17;;;;;;;38.17;65.58;99739.02;1700769;84;21936;-72
2021/06/15 09:57:33;;;;;;;4.70;2.42;;;;;;;38.01;64.11;99743.42;1702476;82;22127;-71
2021/06/15 10:00:16;;;;;;;3.70;2.17;;;;;;;37.09;64.24;99746.19;1666870;85;21100;-71
2021/06/15 10:03:00;;;;;;;4.28;2.60;;;;;;;36.40;74.37;99749.29;1649556;85;21028;-67
2021/06/15 10:05:37;;;;;;;9.88;3.47;;;;;;;35.57;84.29;99748.16;1662830;84;21080;-61
2021/06/15 10:08:07;;;;;;;7.20;3.40;;;;;;;34.53;100.00;99759.02;1644189;85;21101;-62
2021/06/15 10:10:40;;;;;;;5.60;2.70;;;;;;;32.93;100.00;99774.32;1699951;82;21633;-69
2021/06/15 10:13:07;;;;;;;4.72;3.05;;;;;;;31.61;100.00;99755.52;1699859;82;20934;-70
2021/06/15 10:15:35;;;;;;;6.45;2.60;;;;;;;30.59;100.00;99750.81;1696564;84;22171;-68
2021/06/15 10:18:02;;;;;;;4.72;2.75;;;;;;;30.08;100.00;99754.05;1699812;82;21116;-69
2021/06/15 10:20:31;;;;;;;4.87;2.83;;;;;;;29.58;100.00;99762.28;1698392;82;21193;-69
2021/06/15 10:22:58;;;;;;;6.70;3.25;;;;;;;29.17;100.00;99764.19;1700542;84;20998;-68
2021/06/15 10:25:31;;;;;;;6.03;2.87;;;;;;;28.79;100.00;99752.77;1702254;82;21491;-64
2021/06/15 10:27:58;;;;;;;8.15;3.45;;;;;;;28.52;100.00;99759.23;1701587;82;21104;-62
2021/06/15 10:30:34;;;;;;;5.97;3.27;;;;;;;28.38;100.00;99758.61;1697851;82;21081;-67
2021/06/15 10:33:13;;;;;;;5.97;3.80;;;;;;;28.23;100.00;99763.28;1704044;82;21134;-67
2021/06/15 10:35:58;;;;;;;6.47;4.37;;;;;;;27.98;100.00;99759.98;1704668;82;21326;-61
2021/06/15 10:38:35;;;;;;;18.90;5.40;;;;;;;27.75;100.00;99754.72;1702376;84;21037;-67
2021/06/15 10:41:03;;;;;;;7.00;4.93;;;;;;;27.56;100.00;99752.80;1701832;82;21046;-64
2021/06/15 10:43:42;;;;;;;4.90;4.37;;;;;;;27.55;100.00;99752.56;1700724;84;21578;-62
2021/06/15 10:46:19;;;;;;;5.97;4.67;;;;;;;27.65;100.00;99748.26;1703581;82;21179;-65
2021/06/15 10:49:01;;;;;;;8.27;3.83;;;;;;;27.68;100.00;99754.34;1702499;84;20990;-62
2021/06/15 10:51:36;;;;;;;3.33;3.03;;;;;;;27.71;100.00;99757.74;1703427;82;20982;-67
2021/06/15 10:54:25;;;;;;;4.47;3.20;;;;;;;27.78;100.00;99753.31;1706046;82;20919;-66
2021/06/15 10:57:16;;;;;;;4.47;2.70;;;;;;;27.98;100.00;99745.25;1706518;82;21121;-66
2021/06/15 11:00:09;;;;;;;5.53;2.53;;;;;;;28.14;100.00;99731.09;1704631;82;21079;-60
2021/06/15 11:02:36;;;;;;;4.43;2.60;;;;;;;28.22;100.00;99725.51;1700378;82;21066;-65
2021/06/15 11:05:48;;;;;;;3.43;2.23;;;;;;;28.58;100.00;99713.74;1713544;82;21531;-67
2021/06/15 11:08:29;;;;;;;5.00;2.10;;;;;;;28.88;100.00;99707.17;1717704;82;21036;-67
2021/06/15 11:11:05;;;;;;;3.83;2.13;;;;;;;29.39;100.00;99716.98;1714024;83;20934;-62
2021/06/15 11:13:50;;;;;;;3.50;2.03;;;;;;;29.80;100.00;99712.88;1712478;83;21531;-69
2021/06/15 11:16:36;;;;;;;4.20;2.00;;;;;;;30.26;100.00;99703.91;1716060;83;21040;-65
2021/06/15 11:19:16;;;;;;;3.62;1.98;;;;;;;30.68;100.00;99699.83;1717815;83;20917;-66
2021/06/15 11:22:04;;;;;;;2.65;1.95;;;;;;;31.24;100.00;99704.83;1718594;82;21159;-67
2021/06/15 11:24:54;;;;;;;1.80;1.45;;;;;;;31.75;100.00;99699.94;1717504;82;21493;-68
2021/06/15 11:27:28;;;;;;;2.25;1.80;;;;;;;32.28;100.00;99701.30;1718878;82;21827;-67
2021/06/15 11:30:01;;;;;;;2.92;1.80;;;;;;;32.66;100.00;99684.68;1715328;82;21416;-67
2021/06/15 11:32:33;;;;;;;3.15;1.75;;;;;;;32.88;100.00;99683.30;1717130;82;21089;-65
2021/06/15 11:35:04;;;;;;;2.55;2.02;;;;;;;33.33;100.00;99682.91;1718568;82;21014;-70
2021/06/15 11:37:45;;;;;;;2.27;1.72;;;;;;;33.33;100.00;99682.91;1715455;83;21035;-64
2021/06/15 11:40:33;;;;;;;7.90;2.17;;;;;;;33.38;100.00;99685.36;1716981;82;24866;-72
2021/06/15 11:43:17;;;;;;;3.85;2.25;;;;;;;33.38;100.00;99695.39;1716842;83;20922;-69
2021/06/15 11:45:46;;;;;;;3.00;2.15;;;;;;;33.38;100.00;99695.39;1715770;83;21070;-71
2021/06/15 11:48:31;;;;;;;4.35;2.37;;;;;;;33.24;100.00;99703.14;1720640;82;20992;-69
2021/06/15 11:51:05;;;;;;;4.12;2.52;;;;;;;33.07;100.00;99692.91;1715369;83;21274;-65
2021/06/15 11:53:37;;;;;;;4.33;2.20;;;;;;;33.49;100.00;99699.70;1716090;82;21340;-72